createdAt,value
2023-10-31T00:01:24.337Z,6.28
2023-10-31T00:04:30.136Z,5.90
2023-10-31T00:07:35.473Z,4.72
2023-10-31T00:10:41.359Z,4.78
2023-10-31T00:13:46.715Z,5.78
2023-10-31T00:16:52.310Z,5.90
2023-10-31T00:19:57.994Z,4.97
2023-10-31T00:23:04.287Z,5.35
2023-10-31T00:26:10.684Z,4.87
2023-10-31T00:29:19.682Z,5.05
2023-10-31T00:32:24.923Z,4.80
2023-10-31T00:35:30.793Z,3.98
2023-10-31T00:38:36.699Z,5.78
2023-10-31T00:41:42.278Z,4.50
2023-10-31T00:44:47.146Z,5.50
2023-10-31T00:47:53.137Z,5.55
2023-10-31T00:51:00.324Z,5.55
2023-10-31T00:54:05.634Z,5.10
2023-10-31T00:57:10.865Z,6.28
2023-10-31T01:00:17.496Z,4.95
2023-10-31T01:03:23.482Z,5.50
2023-10-31T01:06:29.918Z,5.75
2023-10-31T01:09:35.180Z,4.90
2023-10-31T01:12:42.367Z,5.10
2023-10-31T01:15:47.497Z,5.40
2023-10-31T01:18:52.639Z,4.60
2023-10-31T01:21:58.226Z,5.35
2023-10-31T01:25:03.615Z,4.40
2023-10-31T01:28:10.610Z,5.05
2023-10-31T01:31:16.654Z,4.87
2023-10-31T01:34:22.152Z,5.25
2023-10-31T01:37:28.529Z,4.30
2023-10-31T01:40:34.989Z,4.97
2023-10-31T01:43:53.109Z,4.70
2023-10-31T01:46:58.562Z,4.50
2023-10-31T01:50:04.702Z,3.60
2023-10-31T01:53:09.909Z,3.70
2023-10-31T01:56:15.030Z,4.33
2023-10-31T01:59:21.385Z,3.90
2023-10-31T02:02:26.973Z,4.22
2023-10-31T02:05:34.648Z,3.98
2023-10-31T02:08:40.758Z,5.00
2023-10-31T02:11:45.763Z,5.40
2023-10-31T02:14:51.394Z,4.72
2023-10-31T02:17:57.881Z,4.80
2023-10-31T02:21:04.922Z,4.67
2023-10-31T02:24:18.258Z,4.33
2023-10-31T02:27:23.539Z,5.08
2023-10-31T02:30:30.373Z,5.03
2023-10-31T02:33:35.722Z,4.50
2023-10-31T02:36:41.378Z,4.12
2023-10-31T02:39:48.234Z,4.55
2023-10-31T02:42:54.771Z,4.40
2023-10-31T02:46:00.919Z,4.30
2023-10-31T02:49:07.326Z,5.30
2023-10-31T02:52:12.815Z,4.62
2023-10-31T02:55:19.732Z,4.42
2023-10-31T02:58:24.606Z,3.98
2023-10-31T03:01:30.333Z,5.08
2023-10-31T03:04:36.666Z,4.12
2023-10-31T03:07:42.751Z,5.60
2023-10-31T03:10:48.233Z,6.05
2023-10-31T03:13:53.446Z,5.20
2023-10-31T03:16:58.604Z,5.30
2023-10-31T03:20:04.998Z,4.53
2023-10-31T03:23:11.380Z,4.92
2023-10-31T03:26:17.046Z,5.22
2023-10-31T03:29:22.670Z,5.12
2023-10-31T03:32:28.224Z,4.47
2023-10-31T03:35:33.480Z,4.72
2023-10-31T03:38:39.834Z,4.03
2023-10-31T03:41:46.102Z,4.35
2023-10-31T03:44:51.469Z,3.95
2023-10-31T03:47:56.738Z,3.00
2023-10-31T03:51:02.087Z,3.10
2023-10-31T03:54:07.195Z,2.77
2023-10-31T03:57:13.237Z,3.27
2023-10-31T04:00:19.752Z,3.17
2023-10-31T04:03:25.402Z,3.37
2023-10-31T04:06:31.159Z,3.80
2023-10-31T04:09:37.397Z,2.47
2023-10-31T04:12:43.351Z,2.85
2023-10-31T04:15:48.595Z,2.70
2023-10-31T04:18:53.624Z,2.55
2023-10-31T04:21:58.766Z,2.62
2023-10-31T04:25:04.894Z,2.30
2023-10-31T04:28:11.233Z,3.00
2023-10-31T04:31:20.341Z,2.50
2023-10-31T04:34:25.411Z,2.55
2023-10-31T04:37:33.890Z,3.17
2023-10-31T04:40:38.592Z,3.92
2023-10-31T04:43:44.578Z,4.53
2023-10-31T04:46:50.106Z,4.20
2023-10-31T04:49:56.578Z,4.30
2023-10-31T04:53:02.407Z,3.67
2023-10-31T04:56:08.955Z,3.83
2023-10-31T04:59:15.105Z,2.67
2023-10-31T05:02:20.434Z,2.15
2023-10-31T05:05:25.669Z,1.98
2023-10-31T05:08:30.936Z,2.50
2023-10-31T05:11:36.261Z,1.77
2023-10-31T05:14:42.398Z,2.35
2023-10-31T05:17:48.161Z,2.33
2023-10-31T05:20:53.833Z,2.33
2023-10-31T05:23:59.750Z,3.12
2023-10-31T05:27:05.516Z,2.65
2023-10-31T05:30:11.529Z,2.95
2023-10-31T05:33:18.258Z,3.30
2023-10-31T05:36:36.485Z,2.42
2023-10-31T05:39:44.660Z,2.80
2023-10-31T05:42:50.713Z,2.83
2023-10-31T05:45:56.740Z,2.00
2023-10-31T05:49:01.815Z,3.10
2023-10-31T05:52:08.114Z,4.22
2023-10-31T05:55:14.251Z,2.70
2023-10-31T05:58:20.699Z,3.22
2023-10-31T06:01:26.692Z,2.35
2023-10-31T06:04:33.166Z,3.50
2023-10-31T06:07:39.566Z,3.40
2023-10-31T06:10:45.297Z,3.45
2023-10-31T06:13:51.667Z,3.00
2023-10-31T06:16:59.569Z,3.55
2023-10-31T06:20:04.734Z,3.60
2023-10-31T06:23:11.768Z,3.87
2023-10-31T06:26:17.298Z,4.10
2023-10-31T06:29:42.995Z,4.17
2023-10-31T06:32:30.887Z,4.00
2023-10-31T06:35:38.137Z,5.80
2023-10-31T06:38:43.017Z,6.05
2023-10-31T06:41:48.242Z,5.58
2023-10-31T06:44:53.728Z,6.67
2023-10-31T06:47:59.208Z,5.87
2023-10-31T06:51:05.403Z,6.70
2023-10-31T06:54:11.394Z,7.47
2023-10-31T06:57:16.626Z,10.05
2023-10-31T07:00:27.002Z,26.73
2023-10-31T07:03:32.298Z,22.58
2023-10-31T07:06:40.324Z,12.93
2023-10-31T07:09:49.569Z,9.20
2023-10-31T07:12:55.109Z,8.88
2023-10-31T07:16:00.798Z,8.65
2023-10-31T07:19:07.653Z,6.72
2023-10-31T07:22:12.928Z,5.62
2023-10-31T07:25:19.823Z,6.15
2023-10-31T07:28:25.170Z,5.08
2023-10-31T07:31:31.199Z,5.90
2023-10-31T07:34:37.889Z,7.05
2023-10-31T07:37:43.295Z,6.50
2023-10-31T07:40:49.078Z,5.95
2023-10-31T07:43:55.453Z,7.03
2023-10-31T07:47:01.065Z,7.30
2023-10-31T07:50:07.571Z,6.90
2023-10-31T07:53:14.079Z,5.90
2023-10-31T07:56:20.243Z,5.92
2023-10-31T07:59:26.302Z,6.40
2023-10-31T08:02:31.563Z,6.10
2023-10-31T08:05:37.100Z,4.70
2023-10-31T08:08:42.294Z,5.83
2023-10-31T08:11:47.770Z,5.50
2023-10-31T08:14:54.276Z,5.72
2023-10-31T08:18:01.573Z,5.53
2023-10-31T08:21:08.029Z,6.00
2023-10-31T08:24:13.293Z,5.40
2023-10-31T08:27:21.074Z,4.17
2023-10-31T08:30:28.393Z,4.90
2023-10-31T08:33:33.534Z,5.45
2023-10-31T08:36:40.074Z,5.15
2023-10-31T08:39:45.430Z,6.08
2023-10-31T08:42:51.101Z,4.33
2023-10-31T08:45:56.612Z,4.20
2023-10-31T08:49:02.294Z,3.98
2023-10-31T08:52:09.812Z,3.80
2023-10-31T08:55:15.518Z,3.77
2023-10-31T08:58:26.464Z,3.50
2023-10-31T09:01:33.336Z,3.65
2023-10-31T09:04:39.407Z,3.20
2023-10-31T09:07:45.053Z,3.10
2023-10-31T09:10:54.660Z,3.45
2023-10-31T09:13:59.906Z,3.50
2023-10-31T09:17:05.999Z,3.67
2023-10-31T09:20:12.162Z,3.27
2023-10-31T09:23:18.514Z,3.65
2023-10-31T09:26:25.871Z,3.50
2023-10-31T09:29:32.244Z,3.95
2023-10-31T09:32:39.372Z,3.55
2023-10-31T09:35:45.451Z,3.30
2023-10-31T09:38:50.629Z,3.30
2023-10-31T09:41:55.973Z,3.00
2023-10-31T09:45:04.472Z,3.67
2023-10-31T09:48:10.087Z,3.20
2023-10-31T09:51:18.996Z,3.30
2023-10-31T09:54:25.003Z,3.67
2023-10-31T09:57:31.158Z,2.87
2023-10-31T10:00:37.050Z,2.83
2023-10-31T10:03:51.829Z,2.92
2023-10-31T10:07:09.532Z,3.72
2023-10-31T10:10:15.471Z,3.87
2023-10-31T10:13:22.104Z,3.08
2023-10-31T10:16:27.863Z,3.35
2023-10-31T10:19:36.360Z,3.08
2023-10-31T10:22:44.384Z,2.62
2023-10-31T10:25:50.782Z,3.27
2023-10-31T10:28:56.793Z,2.35
2023-10-31T10:32:02.673Z,2.92
2023-10-31T10:35:10.041Z,3.10
2023-10-31T10:38:16.111Z,3.08
2023-10-31T10:41:22.344Z,2.65
2023-10-31T10:44:28.356Z,2.92
2023-10-31T10:47:34.843Z,2.80
2023-10-31T10:50:41.403Z,2.67
2023-10-31T10:53:53.406Z,2.90
2023-10-31T10:57:09.274Z,2.83
2023-10-31T11:00:21.128Z,2.90
2023-10-31T11:03:26.728Z,2.25
2023-10-31T11:49:09.940Z,2.83
2023-10-31T11:52:16.953Z,2.80
2023-10-31T11:55:29.163Z,2.95
2023-10-31T11:58:39.809Z,3.75
2023-10-31T12:01:46.647Z,2.70
2023-10-31T12:04:53.464Z,2.85
2023-10-31T12:08:01.357Z,3.10
2023-10-31T12:11:06.915Z,2.62
2023-10-31T12:14:17.061Z,3.08
2023-10-31T12:17:24.197Z,3.10
2023-10-31T12:20:31.012Z,3.15
2023-10-31T12:23:36.987Z,2.40
2023-10-31T12:26:42.965Z,3.40
2023-10-31T12:29:47.819Z,3.08
2023-10-31T12:32:55.089Z,3.00
2023-10-31T12:36:04.131Z,2.62
2023-10-31T12:39:11.351Z,3.52
2023-10-31T12:42:19.578Z,3.00
2023-10-31T12:45:26.110Z,2.45
2023-10-31T12:48:31.094Z,3.27
2023-10-31T12:51:37.479Z,2.70
2023-10-31T12:54:53.929Z,2.77
2023-10-31T12:57:59.975Z,3.00
2023-10-31T13:01:06.867Z,2.98
2023-10-31T13:04:12.594Z,2.90
2023-10-31T13:07:21.924Z,3.15
2023-10-31T13:10:27.495Z,2.37
2023-10-31T13:13:33.224Z,3.20
2023-10-31T13:16:38.206Z,2.75
2023-10-31T13:19:43.731Z,3.58
2023-10-31T13:22:51.646Z,2.90
2023-10-31T13:25:57.409Z,4.47
2023-10-31T13:29:02.669Z,2.83
2023-10-31T13:32:11.001Z,3.08
2023-10-31T13:35:19.837Z,2.90
2023-10-31T13:38:26.120Z,2.62
2023-10-31T13:41:31.546Z,2.72
2023-10-31T13:44:38.298Z,2.60
2023-10-31T13:47:46.177Z,3.02
2023-10-31T13:50:52.834Z,2.77
2023-10-31T13:53:58.951Z,3.17
2023-10-31T13:57:06.861Z,3.45
2023-10-31T14:00:12.991Z,2.77
2023-10-31T14:03:19.672Z,4.85
2023-10-31T14:06:26.912Z,4.90
2023-10-31T14:09:33.508Z,3.50
2023-10-31T14:12:39.422Z,3.22
2023-10-31T14:15:46.270Z,3.27
2023-10-31T14:18:54.287Z,3.70
2023-10-31T14:22:03.372Z,3.40
2023-10-31T14:25:11.084Z,4.40
2023-10-31T14:28:16.893Z,3.62
2023-10-31T14:31:23.366Z,4.70
2023-10-31T14:34:28.160Z,6.00
2023-10-31T14:37:36.116Z,4.67
2023-10-31T14:40:41.974Z,4.80
2023-10-31T14:43:47.637Z,4.83
2023-10-31T14:46:53.777Z,4.50
2023-10-31T14:49:59.532Z,4.80
2023-10-31T14:53:06.424Z,5.97
2023-10-31T14:56:14.183Z,5.75
2023-10-31T14:59:23.630Z,7.05
2023-10-31T15:02:28.684Z,5.60
2023-10-31T15:05:35.834Z,6.00
2023-10-31T15:08:41.584Z,6.22
2023-10-31T15:11:47.881Z,6.40
2023-10-31T15:14:53.900Z,6.60
2023-10-31T15:18:01.855Z,6.75
2023-10-31T15:21:08.201Z,7.70
2023-10-31T15:24:15.888Z,7.40
2023-10-31T15:27:23.694Z,7.97
2023-10-31T15:30:29.306Z,7.60
2023-10-31T15:33:34.448Z,7.35
2023-10-31T15:36:40.288Z,6.87
2023-10-31T15:39:45.480Z,6.87
2023-10-31T15:42:51.192Z,6.78
2023-10-31T15:45:56.599Z,8.93
2023-10-31T15:49:03.656Z,9.45
2023-10-31T15:52:10.101Z,10.13
2023-10-31T15:55:14.737Z,10.65
2023-10-31T15:58:19.720Z,10.28
2023-10-31T16:01:24.962Z,11.93
2023-10-31T16:04:31.787Z,10.20
2023-10-31T16:07:37.253Z,9.83
2023-10-31T16:10:42.658Z,9.80
2023-10-31T16:13:49.256Z,10.05
2023-10-31T16:16:55.297Z,10.82
2023-10-31T16:20:01.533Z,10.65
2023-10-31T16:23:07.282Z,11.22
2023-10-31T16:26:15.568Z,11.88
2023-10-31T16:29:23.470Z,10.75
2023-10-31T16:32:29.653Z,11.50
2023-10-31T16:35:35.867Z,12.05
2023-10-31T16:38:42.313Z,12.28
2023-10-31T16:41:48.124Z,13.48
2023-10-31T16:44:55.773Z,13.35
2023-10-31T16:48:03.700Z,13.98
2023-10-31T16:51:09.882Z,12.90
2023-10-31T16:54:15.487Z,13.25
2023-10-31T16:57:20.930Z,11.97
2023-10-31T17:00:27.104Z,12.23
2023-10-31T17:03:32.537Z,12.25
2023-10-31T17:06:38.964Z,10.88
2023-10-31T17:09:45.344Z,10.90
2023-10-31T17:12:51.289Z,12.20
2023-10-31T17:15:56.081Z,11.88
2023-10-31T17:19:02.728Z,11.85
2023-10-31T17:22:08.211Z,10.48
2023-10-31T17:25:13.357Z,9.93
2023-10-31T17:28:19.370Z,10.50
2023-10-31T17:31:18.283Z,8.73
2023-10-31T17:34:12.305Z,9.60
2023-10-31T17:37:18.111Z,8.93
2023-10-31T17:40:24.813Z,7.10
2023-10-31T17:43:30.574Z,7.37
2023-10-31T17:46:35.787Z,7.15
2023-10-31T17:49:40.690Z,6.87
2023-10-31T17:52:46.936Z,6.17
2023-10-31T17:55:55.427Z,7.03
2023-10-31T17:59:01.489Z,6.20
2023-10-31T18:02:07.310Z,6.10
2023-10-31T18:05:16.674Z,6.97
2023-10-31T18:08:21.860Z,6.42
2023-10-31T18:11:27.556Z,7.05
2023-10-31T18:14:34.333Z,6.80
2023-10-31T18:17:39.899Z,7.72
2023-10-31T18:20:46.061Z,6.83
2023-10-31T18:23:52.886Z,7.83
2023-10-31T18:26:58.519Z,9.65
2023-10-31T18:30:09.619Z,8.18
2023-10-31T18:33:15.034Z,7.80
2023-10-31T18:36:27.379Z,7.17
2023-10-31T18:39:28.448Z,7.05
2023-10-31T18:42:33.547Z,7.50
2023-10-31T18:45:39.000Z,7.45
2023-10-31T18:48:47.144Z,7.72
2023-10-31T18:51:53.742Z,7.83
2023-10-31T18:55:01.532Z,7.97
2023-10-31T18:58:06.518Z,8.53
2023-10-31T19:01:13.109Z,7.90
2023-10-31T19:04:21.518Z,7.92
2023-10-31T19:07:27.516Z,8.10
2023-10-31T19:10:34.139Z,8.40
2023-10-31T19:13:40.037Z,8.33
2023-10-31T19:16:45.462Z,8.63
2023-10-31T19:19:52.136Z,8.33
2023-10-31T19:22:58.604Z,8.35
2023-10-31T19:26:04.995Z,7.83
2023-10-31T19:29:10.811Z,7.80
2023-10-31T19:32:16.548Z,7.80
2023-10-31T19:35:23.115Z,7.33
2023-10-31T19:38:29.301Z,7.33
2023-10-31T19:41:35.885Z,7.33
2023-10-31T19:44:42.804Z,8.88
2023-10-31T19:47:49.377Z,8.15
2023-10-31T19:50:56.005Z,7.72
2023-10-31T19:54:00.846Z,6.87
2023-10-31T19:57:07.859Z,7.45
2023-10-31T20:00:13.590Z,7.42
2023-10-31T20:03:20.675Z,7.67
2023-10-31T20:06:27.249Z,7.92
2023-10-31T20:09:32.678Z,7.65
2023-10-31T20:12:38.602Z,8.48
2023-10-31T20:15:45.436Z,9.33
2023-10-31T20:18:51.499Z,8.73
2023-10-31T20:21:59.233Z,9.15
2023-10-31T20:25:04.403Z,9.13
2023-10-31T20:28:10.281Z,8.13
2023-10-31T20:31:15.987Z,8.68
2023-10-31T20:34:22.812Z,8.05
2023-10-31T20:37:28.532Z,8.98
2023-10-31T20:40:35.675Z,9.40
2023-10-31T20:43:42.231Z,9.25
2023-10-31T20:46:49.133Z,8.95
2023-10-31T20:49:55.034Z,7.85
2023-10-31T20:53:03.469Z,8.23
2023-10-31T20:56:09.213Z,7.85
2023-10-31T20:59:17.854Z,8.25
2023-10-31T21:02:24.315Z,8.05
2023-10-31T21:05:31.001Z,7.50
2023-10-31T21:08:38.168Z,6.95
2023-10-31T21:11:43.742Z,6.95
2023-10-31T21:14:50.019Z,6.83
2023-10-31T21:17:56.230Z,9.30
2023-10-31T21:21:02.632Z,7.45
2023-10-31T21:24:09.065Z,7.92
2023-10-31T21:27:14.546Z,9.45
2023-10-31T21:30:22.251Z,8.23
2023-10-31T21:33:30.582Z,7.40
2023-10-31T21:36:36.628Z,7.90
2023-10-31T21:39:42.475Z,6.72
2023-10-31T21:42:47.444Z,7.87
2023-10-31T21:45:53.461Z,7.80
2023-10-31T21:48:59.047Z,8.08
2023-10-31T21:52:05.161Z,7.85
2023-10-31T21:55:12.790Z,9.65
2023-10-31T21:58:18.867Z,9.38
2023-10-31T22:01:24.105Z,10.03
2023-10-31T22:04:29.600Z,8.23
2023-10-31T22:07:35.706Z,9.73
2023-10-31T22:10:42.113Z,8.93
2023-10-31T22:13:48.306Z,9.33
2023-10-31T22:16:53.718Z,9.25
2023-10-31T22:20:00.484Z,9.78
2023-10-31T22:23:06.757Z,9.35
2023-10-31T22:26:11.765Z,10.03
2023-10-31T22:29:19.537Z,9.30
2023-10-31T22:32:25.195Z,9.90
2023-10-31T22:35:31.005Z,9.88
2023-10-31T22:38:36.325Z,9.50
2023-10-31T22:41:41.826Z,9.93
2023-10-31T22:44:47.476Z,10.63
2023-10-31T22:47:55.351Z,11.73
2023-10-31T22:51:02.186Z,12.13
2023-10-31T22:54:08.434Z,12.10
2023-10-31T22:57:14.745Z,12.33
2023-10-31T23:00:26.379Z,12.20
2023-10-31T23:03:32.934Z,11.65
2023-10-31T23:06:40.714Z,13.38
2023-10-31T23:09:46.759Z,12.03
2023-10-31T23:12:54.287Z,13.05
2023-10-31T23:16:00.675Z,12.75
2023-10-31T23:19:05.752Z,11.70
2023-10-31T23:22:11.887Z,11.78
2023-10-31T23:25:17.313Z,12.23
2023-10-31T23:28:24.095Z,13.53
2023-10-31T23:31:30.682Z,14.63
2023-10-31T23:34:37.860Z,12.93
2023-10-31T23:37:45.726Z,12.82
2023-10-31T23:40:53.873Z,12.23
2023-10-31T23:44:00.282Z,16.12
2023-10-31T23:47:06.945Z,20.00
2023-10-31T23:50:13.750Z,22.67
2023-10-31T23:53:20.767Z,19.73
2023-10-31T23:56:27.645Z,23.95
2023-10-31T23:59:33.275Z,22.52
